Time;durP1;ratioP1;P1;durP2;ratioP2;P2;SDS_P1;SDS_P2;PMS_P1;PMS_P2;Temp;Humidity;BMP_temperature;BMP_pressure;BME280_temperature;BME280_humidity;BME280_pressure;Samples;Min_cycle;Max_cycle;Signal;HPM_P1;HPM_P2
2022/02/20 00:00:37;;;;;;;0.40;0.30;;;2.00;1.40;;;2.55;100.00;95374.84;617641;226;31842;-76
2022/02/20 00:03:19;;;;;;;1.50;1.00;;;2.30;1.40;;;2.47;100.00;95382.23;647365;216;31502;-75
2022/02/20 00:06:00;;;;;;;0.40;0.22;;;2.00;1.40;;;2.63;100.00;95372.21;648316;216;42272;-77
2022/02/20 00:08:42;;;;;;;0.80;0.80;;;2.30;1.40;;;2.66;100.00;95377.91;618795;226;31809;-78
2022/02/20 00:11:27;;;;;;;1.60;0.60;;;2.30;1.40;;;2.59;100.00;95377.19;634823;222;32441;-80
2022/02/20 00:14:11;;;;;;;0.40;0.30;;;2.10;1.40;;;2.66;100.00;95383.69;619750;226;32604;-76
2022/02/20 00:16:52;;;;;;;1.02;1.02;;;2.20;1.40;;;2.75;100.00;95373.80;648431;212;31691;-75
2022/02/20 00:19:34;;;;;;;0.60;0.47;;;2.30;1.40;;;2.85;100.00;95374.97;650914;212;31575;-77
2022/02/20 00:22:22;;;;;;;0.80;0.80;;;2.50;1.40;;;2.96;100.00;95380.49;651764;212;31622;-80
2022/02/20 00:25:10;;;;;;;0.90;0.60;;;2.50;1.40;;;2.87;100.00;95375.19;649010;212;32064;-78
2022/02/20 00:27:51;;;;;;;1.52;0.62;;;2.40;1.40;;;2.95;100.00;95371.17;646643;212;31505;-75
2022/02/20 00:30:35;;;;;;;2.85;0.45;;;2.50;1.40;;;3.00;100.00;95368.28;652368;216;31497;-79
2022/02/20 00:35:57;;;;;;;0.57;0.57;;;2.70;1.40;;;3.10;100.00;95361.53;648256;216;31654;-75
2022/02/20 00:38:42;;;;;;;0.60;0.60;;;2.70;1.40;;;3.22;100.00;95359.86;646941;212;31575;-75
2022/02/20 00:41:29;;;;;;;0.40;0.30;;;2.80;1.40;;;3.25;100.00;95359.55;624144;222;32615;-80
2022/02/20 00:44:13;;;;;;;0.55;0.55;;;2.80;1.40;;;3.47;100.00;95354.64;646113;216;31626;-77
2022/02/20 00:49:30;;;;;;;0.80;0.40;;;3.00;1.40;;;3.54;100.00;95353.78;647830;216;31456;-75
2022/02/20 00:52:11;;;;;;;0.70;0.40;;;3.20;1.40;;;3.69;100.00;95362.78;649005;216;31467;-75
2022/02/20 00:54:53;;;;;;;0.80;0.50;;;3.40;1.40;;;3.85;100.00;95358.25;646599;212;31485;-78
2022/02/20 00:57:35;;;;;;;0.70;0.60;;;3.50;1.40;;;3.91;100.00;95358.72;650264;212;31655;-77
2022/02/20 01:00:22;;;;;;;0.50;0.50;;;3.50;1.40;;;3.96;100.00;95356.64;620463;222;31902;-79
2022/02/20 01:03:10;;;;;;;0.40;0.30;;;3.50;1.40;;;3.85;100.00;95374.71;649498;212;31888;-75
2022/02/20 01:05:53;;;;;;;0.40;0.30;;;3.40;1.40;;;4.02;100.00;95356.70;648043;212;31539;-77
2022/02/20 01:08:34;;;;;;;0.60;0.40;;;3.60;1.40;;;4.00;100.00;95373.17;637864;221;31726;-76
2022/02/20 01:11:17;;;;;;;1.00;0.50;;;3.70;1.40;;;4.12;100.00;95375.58;652510;216;31508;-79
2022/02/20 01:14:05;;;;;;;0.70;0.40;;;3.70;1.40;;;4.17;100.00;95377.62;645421;212;31498;-77
2022/02/20 01:16:47;;;;;;;0.40;0.40;;;3.80;1.40;;;4.27;100.00;95382.41;648824;216;31533;-78
2022/02/20 01:19:28;;;;;;;3.22;0.70;;;3.90;1.40;;;4.21;100.00;95394.64;648418;212;31608;-78
2022/02/20 01:22:12;;;;;;;0.40;0.23;;;3.90;1.40;;;4.25;100.00;95397.77;648575;216;33470;-79
2022/02/20 01:24:56;;;;;;;0.50;0.50;;;3.90;1.40;;;4.28;100.00;95396.61;649488;216;32112;-78
2022/02/20 01:27:38;;;;;;;1.03;0.37;;;3.90;1.40;;;4.35;97.95;95417.28;653041;216;31849;-76
2022/02/20 01:32:56;;;;;;;0.52;0.35;;;4.10;1.40;;;4.49;90.17;95422.97;625603;226;31815;-79
2022/02/20 01:35:51;;;;;;;2.17;0.68;;;4.20;1.40;;;4.57;87.55;95444.50;649905;212;31530;-79
2022/02/20 01:38:35;;;;;;;1.50;0.40;;;4.30;1.40;;;4.54;86.63;95422.97;647474;216;31527;-78
2022/02/20 01:41:20;;;;;;;3.00;0.90;;;4.20;1.40;;;4.44;86.86;95438.72;650962;216;32068;-78
2022/02/20 01:44:01;;;;;;;1.60;0.60;;;4.10;1.40;;;4.66;82.83;95433.80;649382;212;31686;-75
2022/02/20 01:49:21;;;;;;;0.50;0.30;;;4.40;1.40;;;4.67;80.78;95436.65;620469;226;42519;-79
2022/02/20 01:52:08;;;;;;;0.88;0.40;;;4.30;1.40;;;4.69;79.66;95419.09;646905;216;31505;-75
2022/02/20 01:54:51;;;;;;;0.50;0.40;;;4.30;1.40;;;4.82;77.56;95420.54;647097;212;31584;-77
2022/02/20 01:57:37;;;;;;;0.60;0.40;;;4.50;1.40;;;4.69;79.72;95429.03;647323;212;31619;-78
2022/02/20 02:00:20;;;;;;;0.50;0.30;;;4.40;1.40;;;4.89;76.70;95433.30;649799;216;31529;-78
2022/02/20 02:03:07;;;;;;;0.90;0.50;;;4.50;1.40;;;4.86;76.49;95439.27;648773;216;31599;-75
2022/02/20 02:05:54;;;;;;;0.40;0.20;;;4.40;1.40;;;4.76;76.96;95445.36;650173;212;33096;-79
2022/02/20 02:08:36;;;;;;;0.60;0.40;;;4.50;1.40;;;4.75;77.11;95447.39;646598;212;31510;-77
2022/02/20 02:11:18;;;;;;;0.40;0.20;;;4.50;1.40;;;4.88;75.38;95420.36;623182;226;32545;-79
2022/02/20 02:14:05;;;;;;;0.50;0.30;;;4.50;1.40;;;4.91;75.17;95438.40;646687;216;31504;-78
2022/02/20 02:16:53;;;;;;;0.93;0.57;;;4.60;1.40;;;4.89;75.85;95440.55;649224;216;31491;-79
2022/02/20 02:19:35;;;;;;;2.60;0.60;;;4.50;1.40;;;4.69;79.23;95452.12;650079;216;31649;-78
2022/02/20 02:22:18;;;;;;;0.50;0.40;;;4.30;1.40;;;4.61;80.57;95436.99;655100;216;31601;-78
2022/02/20 02:25:07;;;;;;;0.60;0.40;;;4.20;1.40;;;4.58;81.88;95442.14;650853;212;31484;-78
2022/02/20 02:27:54;;;;;;;0.43;0.30;;;4.20;1.40;;;4.45;84.03;95431.80;649637;216;31484;-76
2022/02/20 02:30:39;;;;;;;0.50;0.50;;;4.10;1.40;;;4.34;87.33;95432.36;649742;212;32115;-76
2022/02/20 02:35:51;;;;;;;1.70;0.30;;;3.80;1.40;;;4.08;94.50;95458.53;649813;212;31633;-75
2022/02/20 02:38:32;;;;;;;0.40;0.40;;;3.70;1.40;;;3.93;98.46;95452.80;644880;216;31528;-75
2022/02/20 02:41:14;;;;;;;0.90;0.50;;;3.60;1.40;;;3.73;100.00;95478.80;647944;213;31543;-76
2022/02/20 02:46:32;;;;;;;2.40;1.00;;;3.10;1.40;;;3.32;100.00;95470.71;647205;216;31514;-76
2022/02/20 02:49:12;;;;;;;1.20;0.50;;;3.00;1.40;;;3.19;100.00;95496.56;649116;212;31536;-74
2022/02/20 02:51:54;;;;;;;0.40;0.22;;;3.00;1.40;;;3.12;100.00;95471.99;646113;216;31506;-75
2022/02/20 02:54:36;;;;;;;0.70;0.40;;;2.70;1.40;;;2.92;100.00;95476.90;645406;216;31519;-75
2022/02/20 02:57:20;;;;;;;0.50;0.30;;;2.60;1.40;;;2.87;100.00;95458.66;645043;216;31606;-76
2022/02/20 03:00:02;;;;;;;0.90;0.90;;;2.60;1.40;;;2.82;100.00;95461.41;624767;226;31971;-76
2022/02/20 03:02:44;;;;;;;0.70;0.47;;;2.60;1.40;;;2.76;100.00;95470.59;646672;216;31499;-76
2022/02/20 03:05:25;;;;;;;0.70;0.50;;;2.50;1.40;;;2.80;100.00;95465.94;617714;225;31892;-76
2022/02/20 03:08:07;;;;;;;0.50;0.40;;;2.50;1.40;;;2.70;100.00;95455.88;648894;212;32146;-77
2022/02/20 03:10:52;;;;;;;0.50;0.40;;;2.50;1.40;;;2.64;100.00;95470.16;644227;216;31499;-74
2022/02/20 03:13:34;;;;;;;1.60;1.20;;;2.40;1.40;;;2.55;100.00;95454.48;646810;216;31517;-75
2022/02/20 03:16:15;;;;;;;0.40;0.30;;;2.20;1.40;;;2.48;100.00;95476.19;623197;226;31830;-76
2022/02/20 03:19:00;;;;;;;0.40;0.30;;;2.20;1.40;;;2.35;100.00;95479.03;645508;216;42109;-76
2022/02/20 03:21:42;;;;;;;0.40;0.30;;;2.10;1.40;;;2.26;100.00;95459.95;647136;216;42106;-76
2022/02/20 03:24:24;;;;;;;0.40;0.25;;;1.90;1.40;;;2.18;100.00;95466.16;650245;216;31456;-76
2022/02/20 03:27:06;;;;;;;0.40;0.30;;;1.90;1.40;;;2.19;100.00;95466.91;648013;212;42126;-76
2022/02/20 03:29:47;;;;;;;0.70;0.40;;;1.90;1.40;;;2.22;100.00;95449.45;648781;212;31473;-77
2022/02/20 03:32:29;;;;;;;0.40;0.30;;;2.00;1.40;;;2.20;100.00;95467.40;619991;222;42564;-75
2022/02/20 03:35:55;;;;;;;0.50;0.40;;;2.00;1.40;;;2.17;100.00;95456.78;646400;216;31503;-74
2022/02/20 03:38:37;;;;;;;1.70;0.40;;;2.00;1.40;;;2.13;100.00;95449.84;646347;216;42162;-75
2022/02/20 03:41:19;;;;;;;3.30;0.50;;;1.90;1.40;;;2.31;100.00;95443.20;617316;225;42704;-75
2022/02/20 03:44:00;;;;;;;0.87;0.87;;;2.00;1.40;;;2.31;100.00;95449.73;655855;216;23448;-76
2022/02/20 03:46:48;;;;;;;0.50;0.50;;;2.10;1.40;;;2.31;100.00;95448.88;650211;216;31545;-75
2022/02/20 03:49:36;;;;;;;0.40;0.32;;;2.10;1.40;;;2.34;100.00;95437.13;644240;216;31556;-75
2022/02/20 03:52:17;;;;;;;0.40;0.30;;;2.10;1.40;;;2.37;100.00;95432.72;647893;216;42133;-76
2022/02/20 03:54:59;;;;;;;0.40;0.30;;;2.20;1.40;;;2.46;100.00;95442.68;653075;216;42646;-76
2022/02/20 03:57:41;;;;;;;0.60;0.40;;;2.30;1.40;;;2.54;100.00;95445.64;648195;216;31571;-75
2022/02/20 04:00:23;;;;;;;2.50;0.70;;;2.40;1.40;;;2.57;100.00;95446.79;645203;216;31477;-75
2022/02/20 04:03:05;;;;;;;0.40;0.40;;;2.40;1.40;;;2.73;100.00;95441.02;619816;226;31806;-75
2022/02/20 04:05:50;;;;;;;0.50;0.50;;;2.50;1.40;;;2.70;100.00;95448.27;646889;216;31607;-74
2022/02/20 04:08:33;;;;;;;0.65;0.55;;;2.60;1.40;;;2.86;100.00;95444.03;616911;226;32822;-75
2022/02/20 04:11:15;;;;;;;0.60;0.40;;;2.70;1.40;;;2.94;100.00;95449.71;648728;216;31598;-75
2022/02/20 04:13:56;;;;;;;0.40;0.30;;;2.80;1.40;;;2.87;100.00;95451.91;648498;212;31585;-76
2022/02/20 04:16:38;;;;;;;0.40;0.40;;;2.70;1.40;;;3.02;100.00;95456.50;654446;212;31498;-75
2022/02/20 04:19:20;;;;;;;0.50;0.32;;;2.90;1.40;;;3.14;100.00;95448.55;650167;216;31638;-75
2022/02/20 04:22:01;;;;;;;0.40;0.30;;;2.90;1.40;;;3.22;100.00;95450.23;618597;222;31979;-76
2022/02/20 04:24:43;;;;;;;0.52;0.40;;;3.10;1.40;;;3.43;100.00;95456.93;655274;216;31477;-74
2022/02/20 04:27:25;;;;;;;0.40;0.30;;;3.20;1.40;;;3.59;100.00;95463.69;648045;212;31558;-75
2022/02/20 04:30:07;;;;;;;0.70;0.40;;;3.30;1.40;;;3.62;100.00;95461.08;645783;216;32009;-75
2022/02/20 04:32:48;;;;;;;0.47;0.43;;;3.40;1.40;;;3.66;100.00;95476.27;651068;216;31542;-76
2022/02/20 04:35:51;;;;;;;1.00;0.50;;;3.50;1.40;;;3.72;100.00;95453.92;645486;216;42171;-75
2022/02/20 04:38:34;;;;;;;0.60;0.47;;;3.40;1.40;;;3.76;100.00;95452.43;649920;212;31536;-75
2022/02/20 04:41:15;;;;;;;0.80;0.60;;;3.50;1.40;;;3.80;100.00;95459.64;618920;226;31961;-75
2022/02/20 04:43:57;;;;;;;0.40;0.20;;;3.40;1.40;;;3.77;100.00;95458.44;648485;216;31509;-76
2022/02/20 04:46:39;;;;;;;0.53;0.53;;;3.40;1.40;;;3.84;100.00;95438.73;650067;216;31604;-76
2022/02/20 04:49:23;;;;;;;0.60;0.40;;;3.50;1.40;;;3.85;100.00;95443.09;646601;216;31487;-76
2022/02/20 04:52:05;;;;;;;1.20;0.70;;;3.60;1.40;;;4.00;100.00;95441.61;620668;222;31865;-75
2022/02/20 04:54:47;;;;;;;0.70;0.55;;;3.60;1.40;;;3.99;100.00;95440.53;646669;216;31546;-75
2022/02/20 04:57:34;;;;;;;0.62;0.37;;;3.60;1.40;;;4.01;100.00;95435.02;647191;216;32031;-75
2022/02/20 05:00:16;;;;;;;3.78;0.40;;;3.60;1.40;;;4.10;100.00;95433.84;650632;216;31484;-74
2022/02/20 05:02:57;;;;;;;0.90;0.32;;;3.80;1.40;;;4.16;100.00;95438.62;645856;212;31527;-76
2022/02/20 05:05:39;;;;;;;1.00;0.35;;;3.80;1.40;;;4.09;100.00;95439.84;644922;212;31507;-77
2022/02/20 05:08:23;;;;;;;0.57;0.37;;;3.70;1.40;;;4.06;100.00;95464.33;635776;216;31703;-77
2022/02/20 05:11:11;;;;;;;0.40;0.30;;;3.80;1.40;;;4.16;100.00;95450.75;644104;216;31565;-74
2022/02/20 05:13:54;;;;;;;0.60;0.60;;;3.80;1.40;;;4.14;100.00;95466.69;649233;212;32150;-76
2022/02/20 05:16:34;;;;;;;1.40;0.30;;;3.80;1.40;;;4.14;100.00;95478.86;647083;216;31608;-77
2022/02/20 05:19:16;;;;;;;1.50;0.80;;;3.80;1.40;;;4.14;100.00;95466.69;649576;216;31509;-76
2022/02/20 05:21:58;;;;;;;0.45;0.40;;;3.70;1.40;;;4.12;100.00;95474.24;651512;216;31709;-76
2022/02/20 05:24:39;;;;;;;0.40;0.30;;;3.70;1.40;;;4.07;100.00;95478.65;648273;216;32142;-74
2022/02/20 05:27:21;;;;;;;0.40;0.40;;;3.70;1.40;;;4.14;100.00;95487.34;649497;212;31603;-75
2022/02/20 05:30:03;;;;;;;0.40;0.30;;;3.70;1.40;;;4.23;100.00;95478.19;645712;216;31664;-75
2022/02/20 05:32:45;;;;;;;0.40;0.30;;;3.90;1.40;;;4.15;100.00;95468.41;650868;216;32107;-75
2022/02/20 05:35:51;;;;;;;0.40;0.30;;;3.90;1.40;;;4.17;100.00;95473.23;648288;216;31545;-75
2022/02/20 05:38:33;;;;;;;4.70;0.70;;;3.80;1.40;;;4.20;100.00;95464.02;650839;216;31557;-76
2022/02/20 05:41:15;;;;;;;0.70;0.70;;;3.80;1.40;;;4.30;100.00;95462.09;619451;226;31998;-74
2022/02/20 05:44:02;;;;;;;0.40;0.40;;;3.90;1.40;;;4.16;100.00;95459.02;646313;215;31656;-76
2022/02/20 05:46:43;;;;;;;1.50;0.90;;;3.80;1.40;;;4.21;100.00;95465.20;652990;212;31494;-76
2022/02/20 05:49:25;;;;;;;0.40;0.40;;;3.80;1.40;;;4.35;100.00;95462.37;649011;216;31499;-77
2022/02/20 05:52:07;;;;;;;0.60;0.60;;;4.00;1.40;;;4.25;100.00;95464.57;649125;216;31594;-76
2022/02/20 05:54:49;;;;;;;0.50;0.30;;;3.80;1.40;;;4.28;100.00;95468.63;649191;216;31598;-76
2022/02/20 05:57:45;;;;;;;0.40;0.20;;;3.90;1.40;;;4.25;100.00;95461.94;650386;216;31480;-75
2022/02/20 06:00:26;;;;;;;0.50;0.37;;;3.90;1.40;;;4.32;100.00;95474.11;649204;212;31502;-75
2022/02/20 06:03:08;;;;;;;1.00;0.50;;;3.90;1.40;;;4.30;100.00;95472.17;649377;216;31516;-76
2022/02/20 06:05:50;;;;;;;0.50;0.30;;;3.90;1.40;;;4.40;100.00;95480.79;647822;212;31665;-75
2022/02/20 06:08:36;;;;;;;0.40;0.30;;;4.00;1.40;;;4.40;100.00;95490.98;650101;216;31448;-76
2022/02/20 06:11:18;;;;;;;0.50;0.30;;;4.10;1.40;;;4.45;100.00;95493.52;647839;216;32087;-76
2022/02/20 06:14:00;;;;;;;2.90;0.50;;;4.10;1.40;;;4.47;100.00;95514.66;649939;216;32083;-76
2022/02/20 06:16:42;;;;;;;0.50;0.40;;;4.10;1.40;;;4.53;100.00;95507.42;648929;216;31482;-75
2022/02/20 06:19:26;;;;;;;0.60;0.50;;;4.20;1.40;;;4.59;100.00;95500.13;649079;216;31674;-76
2022/02/20 06:22:08;;;;;;;0.40;0.40;;;4.20;1.40;;;4.50;100.00;95514.39;622709;226;32183;-75
2022/02/20 06:24:50;;;;;;;0.50;0.40;;;4.10;1.40;;;4.62;100.00;95518.23;646889;216;31536;-77
2022/02/20 06:27:31;;;;;;;0.40;0.30;;;4.30;1.40;;;4.60;100.00;95511.63;649767;216;31506;-75
2022/02/20 06:30:16;;;;;;;0.70;0.30;;;4.20;1.40;;;4.72;100.00;95517.74;646819;216;31807;-76
2022/02/20 06:32:58;;;;;;;0.70;0.50;;;4.30;1.40;;;4.65;100.00;95521.46;651721;216;32205;-75
2022/02/20 06:35:51;;;;;;;0.60;0.40;;;4.30;1.40;;;4.64;100.00;95505.89;642873;219;31518;-76
2022/02/20 06:38:36;;;;;;;0.90;0.40;;;4.20;1.40;;;4.76;100.00;95515.60;618073;222;32470;-74
2022/02/20 06:41:18;;;;;;;0.80;0.80;;;4.40;1.40;;;4.64;100.00;95520.17;648938;216;37329;-76
2022/02/20 06:44:00;;;;;;;1.42;0.40;;;4.20;1.40;;;4.72;100.00;95529.98;622609;226;31828;-76
2022/02/20 06:46:43;;;;;;;0.50;0.40;;;4.30;1.40;;;4.72;100.00;95521.29;652186;216;31609;-76
2022/02/20 06:49:23;;;;;;;0.82;0.40;;;4.30;1.40;;;4.76;100.00;95529.03;651640;216;31498;-76
2022/02/20 06:52:08;;;;;;;0.50;0.30;;;4.30;1.40;;;4.64;100.00;95530.59;617891;222;31808;-75
2022/02/20 06:54:50;;;;;;;0.70;0.60;;;4.30;1.40;;;4.72;100.00;95539.44;649096;216;32027;-76
2022/02/20 06:57:35;;;;;;;1.50;0.50;;;4.30;1.40;;;4.70;100.00;95539.81;617382;226;31842;-76
2022/02/20 07:00:19;;;;;;;0.50;0.45;;;4.40;1.40;;;4.80;100.00;95544.67;649084;216;31889;-76
2022/02/20 07:03:01;;;;;;;1.42;0.30;;;4.30;1.40;;;4.70;100.00;95529.77;643872;212;31494;-74
2022/02/20 07:05:43;;;;;;;0.50;0.30;;;4.30;1.40;;;4.76;100.00;95557.66;646846;212;32055;-76
2022/02/20 07:08:27;;;;;;;1.30;0.50;;;4.30;1.40;;;4.72;100.00;95556.41;647735;216;31477;-76
2022/02/20 07:11:09;;;;;;;0.50;0.40;;;4.30;1.40;;;4.77;100.00;95564.70;647507;216;31474;-76
2022/02/20 07:13:51;;;;;;;1.00;0.60;;;4.40;1.40;;;4.85;100.00;95570.06;647976;216;31713;-75
2022/02/20 07:16:32;;;;;;;0.60;0.30;;;4.40;1.40;;;4.80;100.00;95576.20;645164;216;31503;-75
2022/02/20 07:19:14;;;;;;;0.50;0.32;;;4.40;1.40;;;4.86;100.00;95578.50;618643;226;32130;-76
2022/02/20 07:21:56;;;;;;;1.48;0.45;;;4.40;1.40;;;4.90;100.00;95565.29;647160;216;31509;-75
2022/02/20 07:24:38;;;;;;;0.40;0.30;;;4.50;1.40;;;4.86;100.00;95573.82;649760;216;31493;-76
2022/02/20 07:27:19;;;;;;;0.40;0.20;;;4.40;1.40;;;4.91;100.00;95574.80;653025;216;31498;-76
2022/02/20 07:30:01;;;;;;;0.50;0.30;;;4.50;1.40;;;4.94;100.00;95586.30;624152;226;32080;-76
2022/02/20 07:32:43;;;;;;;0.50;0.40;;;4.50;1.40;;;5.09;100.00;95579.31;647034;216;31475;-76
2022/02/20 07:35:52;;;;;;;1.60;0.60;;;4.60;1.40;;;5.13;100.00;95572.77;620620;226;31832;-76
2022/02/20 07:38:34;;;;;;;0.50;0.40;;;4.70;1.40;;;5.14;100.00;95569.92;648790;212;31483;-75
2022/02/20 07:41:18;;;;;;;1.12;0.35;;;4.70;1.40;;;5.15;100.00;95563.69;650166;216;31507;-76
2022/02/20 07:44:02;;;;;;;0.40;0.30;;;4.70;1.40;;;5.21;100.00;95571.45;649788;216;31530;-75
2022/02/20 07:46:44;;;;;;;1.15;0.50;;;4.80;1.40;;;5.24;100.00;95579.58;650521;216;31468;-75
2022/02/20 07:49:26;;;;;;;0.40;0.30;;;4.80;1.40;;;5.24;100.00;95582.70;651469;216;31589;-75
2022/02/20 07:52:07;;;;;;;0.40;0.30;;;4.80;1.40;;;5.27;100.00;95589.09;618544;225;31837;-75
2022/02/20 07:54:49;;;;;;;0.40;0.30;;;4.80;1.40;;;5.24;100.00;95579.36;652318;212;31505;-75
2022/02/20 07:57:31;;;;;;;0.40;0.20;;;4.80;1.40;;;5.35;100.00;95586.20;646596;216;31948;-76
2022/02/20 08:00:14;;;;;;;0.70;0.50;;;4.90;1.40;;;5.36;100.00;95598.02;651053;216;31490;-75
2022/02/20 08:02:57;;;;;;;0.60;0.40;;;4.90;1.40;;;5.37;100.00;95591.95;647028;216;31524;-76
2022/02/20 08:05:46;;;;;;;0.40;0.25;;;5.00;1.40;;;5.46;100.00;95600.31;618836;222;31792;-80
2022/02/20 08:08:30;;;;;;;1.70;0.40;;;5.00;1.40;;;5.47;100.00;95593.81;646475;216;31497;-79
2022/02/20 08:11:17;;;;;;;2.20;0.40;;;5.10;1.40;;;5.49;100.00;95595.53;648351;212;31738;-80
2022/02/20 08:14:05;;;;;;;0.60;0.30;;;5.10;1.40;;;5.52;100.00;95608.59;645635;216;31686;-76
2022/02/20 08:16:47;;;;;;;0.65;0.62;;;5.10;1.40;;;5.59;100.00;95614.11;623655;222;31866;-78
2022/02/20 08:19:28;;;;;;;0.55;0.50;;;5.10;1.40;;;5.51;100.00;95606.55;653611;216;31502;-79
2022/02/20 08:22:10;;;;;;;0.50;0.40;;;5.10;1.40;;;5.62;100.00;95605.78;618715;222;33743;-79
2022/02/20 08:24:52;;;;;;;0.40;0.30;;;5.10;1.40;;;5.64;100.00;95614.86;647473;216;31603;-79
2022/02/20 08:27:34;;;;;;;1.05;0.40;;;5.20;1.40;;;5.57;100.00;95617.80;651907;216;31496;-79
2022/02/20 08:32:58;;;;;;;0.40;0.22;;;5.20;1.40;;;5.70;100.00;95611.15;647256;212;32148;-75
2022/02/20 08:35:57;;;;;;;0.70;0.30;;;5.30;1.40;;;5.67;100.00;95595.45;626426;222;31834;-80
2022/02/20 08:38:41;;;;;;;0.40;0.30;;;5.30;1.40;;;5.73;100.00;95613.20;646548;216;31613;-76
2022/02/20 08:41:23;;;;;;;0.50;0.50;;;5.30;1.40;;;5.75;100.00;95603.52;646609;216;31489;-79
2022/02/20 08:44:07;;;;;;;0.70;0.60;;;5.30;1.40;;;5.82;100.00;95605.31;644588;212;31504;-77
2022/02/20 08:46:49;;;;;;;3.10;0.40;;;5.40;1.40;;;5.95;100.00;95609.09;647517;216;31780;-78
2022/02/20 08:49:34;;;;;;;0.90;0.50;;;5.50;1.40;;;5.99;100.00;95592.48;645889;212;31878;-78
2022/02/20 08:52:15;;;;;;;1.70;0.70;;;5.60;1.40;;;6.10;100.00;95595.74;646275;216;31519;-79
2022/02/20 08:55:03;;;;;;;0.80;0.30;;;5.70;1.40;;;6.29;100.00;95594.70;622178;222;31975;-81
2022/02/20 08:57:47;;;;;;;0.40;0.22;;;5.90;1.40;;;6.44;100.00;95591.72;622261;222;31824;-79
2022/02/20 09:00:29;;;;;;;0.40;0.40;;;6.00;1.40;;;6.60;100.00;95591.41;650458;216;42177;-77
2022/02/20 09:04:55;;;;;;;0.50;0.40;;;6.10;1.40;;;6.49;100.00;95582.86;648778;216;31594;-79
2022/02/20 09:07:42;;;;;;;1.20;0.40;;;6.00;1.40;;;6.67;100.00;95580.34;636686;216;42281;-80
2022/02/20 09:10:24;;;;;;;0.70;0.50;;;6.20;1.40;;;6.61;100.00;95574.81;649558;212;42092;-81
2022/02/20 09:13:08;;;;;;;0.50;0.30;;;6.20;1.40;;;6.73;100.00;95567.30;651007;216;31510;-79
2022/02/20 09:15:54;;;;;;;0.40;0.32;;;6.30;1.40;;;6.96;100.00;95566.98;647342;216;31672;-79
2022/02/20 09:18:40;;;;;;;1.10;0.30;;;6.40;1.40;;;6.96;100.00;95568.22;622646;226;31971;-81
2022/02/20 09:21:28;;;;;;;0.90;0.70;;;6.50;1.40;;;6.89;100.00;95563.03;648574;216;31774;-80
2022/02/20 09:24:10;;;;;;;0.70;0.40;;;6.50;1.40;;;7.01;100.00;95572.45;641120;217;32155;-77
2022/02/20 09:26:51;;;;;;;0.50;0.30;;;6.60;1.40;;;6.86;100.00;95577.30;650023;212;31517;-77
2022/02/20 09:29:35;;;;;;;1.00;0.53;;;6.50;1.40;;;6.98;98.44;95559.42;653100;216;31517;-79
2022/02/20 09:32:21;;;;;;;0.40;0.20;;;6.60;1.40;;;7.19;99.76;95557.75;649761;216;31533;-81
2022/02/20 09:35:57;;;;;;;3.10;0.60;;;6.80;1.40;;;7.32;100.00;95562.38;646414;216;31527;-78
2022/02/20 09:38:45;;;;;;;0.40;0.30;;;7.00;1.40;;;7.41;97.74;95559.83;620847;226;31856;-80
2022/02/20 09:41:27;;;;;;;1.30;0.60;;;6.90;1.40;;;7.37;98.48;95551.06;645190;216;31535;-81
2022/02/20 09:44:08;;;;;;;3.10;0.50;;;7.00;1.40;;;7.51;98.07;95556.91;650100;212;31502;-80
2022/02/20 09:46:50;;;;;;;1.30;0.30;;;7.10;1.40;;;7.71;98.39;95552.45;649515;212;31610;-81
2022/02/20 09:49:32;;;;;;;0.60;0.50;;;7.60;1.40;;;8.21;91.94;95543.39;647573;212;31489;-81
2022/02/20 09:52:13;;;;;;;1.30;0.40;;;8.00;1.40;;;8.58;94.11;95548.59;645075;214;31451;-81
2022/02/20 09:55:01;;;;;;;0.50;0.30;;;8.30;1.40;;;8.75;90.59;95543.17;632104;222;31722;-77
2022/02/20 09:57:49;;;;;;;1.40;0.40;;;8.60;1.40;;;9.43;85.12;95528.56;616543;227;32243;-80
2022/02/20 10:00:37;;;;;;;0.40;0.30;;;9.80;1.40;;;9.38;82.30;95537.91;648765;216;31548;-77
2022/02/20 10:03:27;;;;;;;0.60;0.30;;;9.30;1.40;;;9.60;83.78;95520.03;650309;212;31476;-81
2022/02/20 10:06:09;;;;;;;1.40;0.40;;;9.80;1.40;;;10.30;80.07;95531.62;651488;216;31467;-81
2022/02/20 10:08:51;;;;;;;0.40;0.20;;;10.80;1.40;;;11.38;74.86;95520.03;645608;212;31495;-80
2022/02/20 10:11:34;;;;;;;0.40;0.30;;;11.50;1.40;;;10.87;74.25;95520.78;618372;226;32904;-81
2022/02/20 10:14:16;;;;;;;0.40;0.20;;;11.10;1.40;;;10.71;73.39;95534.98;645425;216;31514;-78
2022/02/20 10:16:58;;;;;;;0.40;0.30;;;9.80;1.40;;;11.00;76.39;95543.64;650471;212;31470;-80
2022/02/20 10:19:59;;;;;;;0.70;0.30;;;11.30;1.40;;;10.78;75.50;95535.37;646744;216;31887;-81
2022/02/20 10:22:43;;;;;;;0.70;0.40;;;10.40;1.40;;;10.68;75.54;95525.72;646798;216;31490;-77
2022/02/20 10:25:26;;;;;;;0.40;0.30;;;10.90;1.40;;;10.19;76.17;95526.21;618593;226;31848;-77
2022/02/20 10:30:50;;;;;;;0.75;0.40;;;9.20;1.40;;;10.31;80.95;95518.06;618596;222;31872;-81
2022/02/20 10:35:52;;;;;;;0.40;0.22;;;10.70;1.40;;;10.68;75.12;95508.41;646332;212;31302;-81
2022/02/20 10:38:39;;;;;;;0.40;0.30;;;9.70;1.40;;;10.11;78.54;95498.28;648739;216;42103;-77
2022/02/20 10:41:27;;;;;;;0.50;0.30;;;10.10;1.40;;;10.77;76.82;95484.13;646405;216;32828;-81
2022/02/20 10:44:09;;;;;;;0.40;0.20;;;10.40;1.40;;;10.04;77.53;95478.70;645501;216;42097;-81
2022/02/20 10:46:51;;;;;;;0.50;0.40;;;9.60;1.40;;;10.30;78.07;95492.39;648623;212;31499;-79
2022/02/20 10:49:38;;;;;;;0.50;0.30;;;9.80;1.40;;;10.77;76.17;95501.72;621205;226;43035;-80
2022/02/20 10:52:21;;;;;;;1.00;0.30;;;10.70;1.40;;;10.45;75.22;95474.17;646674;212;42683;-79
2022/02/20 10:55:03;;;;;;;0.60;0.30;;;10.00;1.40;;;10.69;75.53;95467.94;617398;226;32080;-78
2022/02/20 10:57:51;;;;;;;0.40;0.30;;;10.10;1.40;;;10.37;76.64;95465.26;650298;216;31535;-83
2022/02/20 11:00:34;;;;;;;2.50;0.30;;;10.10;1.40;;;10.38;76.05;95457.81;628379;222;42449;-81
2022/02/20 11:03:22;;;;;;;0.90;0.40;;;10.00;1.40;;;9.99;76.65;95449.69;645980;216;31422;-76
2022/02/20 11:06:03;;;;;;;0.60;0.30;;;9.80;1.40;;;10.28;75.90;95451.19;649919;212;31520;-77
2022/02/20 11:08:45;;;;;;;0.60;0.50;;;9.50;1.40;;;10.03;75.78;95434.77;652080;216;42089;-80
2022/02/20 11:14:15;;;;;;;2.97;0.50;;;9.40;1.40;;;9.74;77.42;95451.37;647790;216;31504;-79
2022/02/20 11:17:06;;;;;;;0.53;0.30;;;9.30;1.40;;;9.84;77.29;95449.29;620554;226;32004;-80
2022/02/20 11:19:52;;;;;;;2.50;0.40;;;9.30;1.40;;;10.21;74.59;95435.48;619512;224;42462;-77
2022/02/20 11:25:15;;;;;;;2.20;0.40;;;10.30;1.40;;;10.15;74.43;95456.02;621436;226;32012;-81
2022/02/20 11:27:59;;;;;;;2.30;0.30;;;9.90;1.40;;;10.08;73.30;95449.91;652818;212;31510;-81
2022/02/20 11:30:49;;;;;;;0.40;0.23;;;9.80;1.40;;;10.58;74.81;95454.33;646673;216;43013;-76
2022/02/20 11:35:53;;;;;;;0.98;0.50;;;10.50;1.40;;;11.12;69.77;95435.98;616096;226;31847;-77
2022/02/20 11:38:41;;;;;;;0.70;0.30;;;10.80;1.40;;;11.80;70.28;95438.41;648064;216;31492;-81
2022/02/20 11:41:28;;;;;;;0.50;0.30;;;11.60;1.40;;;12.12;63.91;95430.84;648030;216;31541;-77
2022/02/20 11:44:17;;;;;;;0.70;0.40;;;12.10;1.40;;;12.07;64.30;95417.98;647265;212;31506;-79
2022/02/20 11:47:02;;;;;;;0.93;0.30;;;12.30;1.40;;;12.37;64.09;95404.31;650260;216;31461;-77
2022/02/20 11:49:44;;;;;;;0.40;0.20;;;12.50;1.40;;;12.96;61.87;95402.50;618957;226;33815;-78
2022/02/20 11:52:25;;;;;;;0.40;0.30;;;13.00;1.40;;;13.10;60.97;95407.89;620420;226;31911;-77
2022/02/20 11:55:13;;;;;;;0.50;0.40;;;12.40;1.40;;;13.04;60.19;95388.27;649943;212;32514;-82
2022/02/20 11:58:10;;;;;;;0.80;0.40;;;13.20;1.40;;;12.84;59.31;95385.88;647954;212;31464;-77
2022/02/20 12:01:05;;;;;;;0.80;0.50;;;12.70;1.40;;;13.82;58.81;95368.80;654267;212;31460;-81
2022/02/20 12:04:04;;;;;;;0.80;0.40;;;14.30;1.40;;;14.12;56.51;95386.39;650365;212;31470;-79
2022/02/20 12:06:45;;;;;;;0.40;0.20;;;13.30;1.40;;;14.23;56.59;95383.58;637227;215;31792;-76
2022/02/20 12:09:35;;;;;;;0.60;0.30;;;13.80;1.40;;;12.77;61.35;95391.48;647724;216;31602;-82
2022/02/20 12:15:27;;;;;;;0.70;0.40;;;11.40;1.40;;;11.45;65.24;95371.08;617997;226;32469;-82
2022/02/20 12:21:18;;;;;;;0.80;0.50;;;12.00;1.40;;;11.42;63.37;95372.48;647798;212;31479;-76
2022/02/20 12:24:12;;;;;;;0.40;0.20;;;11.40;1.40;;;11.01;65.26;95379.97;646889;216;32129;-77